Flugplatz Ingolstadt Manching Airport

Bericht für ETSI

vom 27.09. um 00:20 UTC

Wind 9 kt aus 250°

Sichtweite 7000 m

Temperatur 7.0°C

Taupunkt 5.0°C

Luftfeuchtigkeit 87%

Luftdruck 1001 hPa

ETSI 270020Z AUTO 25009KT 7000 // ////// 07/05 Q1001 ///
Keine Prognose (TAF) verfügbar.
Impressum